createdAt,value
2017-12-03T00:00:36.242Z,2.90
2017-12-03T00:03:03.381Z,2.80
2017-12-03T00:05:29.620Z,2.70
2017-12-03T00:07:55.848Z,2.70
2017-12-03T00:10:22.978Z,2.70
2017-12-03T00:12:49.220Z,2.70
2017-12-03T00:15:15.456Z,2.90
2017-12-03T00:17:41.714Z,2.70
2017-12-03T00:20:08.090Z,2.80
2017-12-03T00:22:34.431Z,2.60
2017-12-03T00:25:00.696Z,2.60
2017-12-03T00:27:27.017Z,2.60
2017-12-03T00:29:53.281Z,2.60
2017-12-03T00:32:20.349Z,2.70
2017-12-03T00:34:47.366Z,2.60
2017-12-03T00:37:13.622Z,2.30
2017-12-03T00:39:41.089Z,2.70
2017-12-03T00:42:07.325Z,2.90
2017-12-03T00:44:33.693Z,3.00
2017-12-03T00:47:00.035Z,2.70
2017-12-03T00:49:27.069Z,2.80
2017-12-03T00:51:54.173Z,2.80
2017-12-03T00:54:20.438Z,2.80
2017-12-03T00:56:46.712Z,2.80
2017-12-03T00:59:12.994Z,3.10
2017-12-03T01:01:39.393Z,3.00
2017-12-03T01:04:06.671Z,3.00
2017-12-03T01:06:32.933Z,2.80
2017-12-03T01:08:59.199Z,2.80
2017-12-03T01:11:25.486Z,2.80
2017-12-03T01:13:51.787Z,2.80
2017-12-03T01:16:18.042Z,2.70
2017-12-03T01:18:44.647Z,2.70
2017-12-03T01:21:10.898Z,2.80
2017-12-03T01:23:37.164Z,2.90
2017-12-03T01:26:03.458Z,2.80
2017-12-03T01:28:30.472Z,2.80
2017-12-03T01:30:56.710Z,2.80
2017-12-03T01:33:22.957Z,2.80
2017-12-03T01:35:49.221Z,2.70
2017-12-03T01:38:16.330Z,2.70
2017-12-03T01:40:43.374Z,2.70
2017-12-03T01:43:10.355Z,2.80
2017-12-03T01:45:36.766Z,2.80
2017-12-03T01:48:03.066Z,2.80
2017-12-03T01:50:29.352Z,2.70
2017-12-03T01:52:56.395Z,2.70
2017-12-03T01:55:22.682Z,2.90
2017-12-03T01:57:48.965Z,2.60
2017-12-03T02:00:15.226Z,2.70
2017-12-03T02:02:41.521Z,2.70
2017-12-03T02:05:07.851Z,2.60
2017-12-03T02:07:34.111Z,2.60
2017-12-03T02:10:00.371Z,2.60
2017-12-03T02:12:26.657Z,2.70
2017-12-03T02:14:53.657Z,2.60
2017-12-03T02:17:19.916Z,2.80
2017-12-03T02:19:46.161Z,2.70
2017-12-03T02:22:12.413Z,2.80
2017-12-03T02:24:39.389Z,2.90
2017-12-03T02:27:06.415Z,2.90
2017-12-03T02:29:32.708Z,2.90
2017-12-03T02:31:58.953Z,2.90
2017-12-03T02:34:25.966Z,2.90
2017-12-03T02:36:52.261Z,2.90
2017-12-03T02:39:18.545Z,2.90
2017-12-03T02:41:44.785Z,2.40
2017-12-03T02:44:11.080Z,2.80
2017-12-03T02:46:37.362Z,2.40
2017-12-03T02:49:03.611Z,2.80
2017-12-03T02:51:30.637Z,2.80
2017-12-03T02:53:56.887Z,2.80
2017-12-03T02:56:23.791Z,2.80
2017-12-03T02:58:50.787Z,2.70
2017-12-03T03:01:17.022Z,2.70
2017-12-03T03:03:43.366Z,2.80
2017-12-03T03:06:09.704Z,2.90
2017-12-03T03:08:35.980Z,2.90
2017-12-03T03:11:02.254Z,2.80
2017-12-03T03:13:28.527Z,2.70
2017-12-03T03:15:54.777Z,2.80
2017-12-03T03:18:21.026Z,2.70
2017-12-03T03:20:47.250Z,2.70
2017-12-03T03:23:13.488Z,2.70
2017-12-03T03:25:39.740Z,2.70
2017-12-03T03:28:07.022Z,2.70
2017-12-03T03:30:34.018Z,2.80
2017-12-03T03:33:01.101Z,2.70
2017-12-03T03:35:27.382Z,2.70
2017-12-03T03:37:53.644Z,2.70
2017-12-03T03:40:19.990Z,2.70
2017-12-03T03:42:46.428Z,2.80
2017-12-03T03:45:12.698Z,2.80
2017-12-03T03:47:39.682Z,2.80
2017-12-03T03:50:05.929Z,2.90
2017-12-03T03:52:32.168Z,2.80
2017-12-03T03:54:58.424Z,3.10
2017-12-03T03:57:24.680Z,2.90
2017-12-03T03:59:50.913Z,2.90
2017-12-03T04:02:17.200Z,2.90
2017-12-03T04:04:43.442Z,2.90
2017-12-03T04:07:10.564Z,2.90
2017-12-03T04:09:36.953Z,2.90
2017-12-03T04:12:03.224Z,3.00
2017-12-03T04:14:29.470Z,2.90
2017-12-03T04:16:55.726Z,3.00
2017-12-03T04:19:22.061Z,3.20
2017-12-03T04:21:48.338Z,2.80
2017-12-03T04:24:14.894Z,2.80
2017-12-03T04:26:41.123Z,2.80
2017-12-03T04:29:07.481Z,2.80
2017-12-03T04:31:33.753Z,2.80
2017-12-03T04:34:00.069Z,2.90
2017-12-03T04:36:27.050Z,2.50
2017-12-03T04:38:53.291Z,2.50
2017-12-03T04:41:20.430Z,2.30
2017-12-03T04:43:46.670Z,2.30
2017-12-03T04:46:13.428Z,2.30
2017-12-03T04:48:40.417Z,2.30
2017-12-03T04:51:06.739Z,2.30
2017-12-03T04:53:33.718Z,2.30
2017-12-03T04:55:59.952Z,2.40
2017-12-03T04:58:26.234Z,2.40
2017-12-03T05:00:52.853Z,2.30
2017-12-03T05:03:19.439Z,2.30
2017-12-03T05:05:45.713Z,2.30
2017-12-03T05:08:12.733Z,2.20
2017-12-03T05:10:39.002Z,2.50
2017-12-03T05:13:07.356Z,2.20
2017-12-03T05:15:33.413Z,2.20
2017-12-03T05:17:59.447Z,2.30
2017-12-03T05:20:25.661Z,2.20
2017-12-03T05:22:51.902Z,2.20
2017-12-03T05:25:18.126Z,2.20
2017-12-03T05:27:44.398Z,2.10
2017-12-03T05:30:10.998Z,2.10
2017-12-03T05:32:37.978Z,2.00
2017-12-03T05:35:04.049Z,1.90
2017-12-03T05:37:30.301Z,2.00
2017-12-03T05:39:56.552Z,2.10
2017-12-03T05:42:22.798Z,1.80
2017-12-03T05:44:49.789Z,2.00
2017-12-03T05:47:19.921Z,1.90
2017-12-03T05:49:46.578Z,2.00
2017-12-03T05:52:12.823Z,2.10
2017-12-03T05:54:39.123Z,2.20
2017-12-03T05:57:05.413Z,2.00
2017-12-03T05:59:31.646Z,2.10
2017-12-03T06:01:57.872Z,2.10
2017-12-03T06:04:24.888Z,2.00
2017-12-03T06:06:51.230Z,1.60
2017-12-03T06:09:17.512Z,2.00
2017-12-03T06:11:43.785Z,2.00
2017-12-03T06:14:10.032Z,2.00
2017-12-03T06:16:36.324Z,2.10
2017-12-03T06:19:02.617Z,2.00
2017-12-03T06:21:28.918Z,2.00
2017-12-03T06:23:55.152Z,2.40
2017-12-03T06:26:22.146Z,2.10
2017-12-03T06:28:48.406Z,2.10
2017-12-03T06:31:14.652Z,2.10
2017-12-03T06:33:40.926Z,2.10
2017-12-03T06:36:08.406Z,2.20
2017-12-03T06:38:35.382Z,2.20
2017-12-03T06:41:01.645Z,2.20
2017-12-03T06:43:27.890Z,2.20
2017-12-03T06:45:54.233Z,2.20
2017-12-03T06:48:20.465Z,2.30
2017-12-03T06:50:46.721Z,2.20
2017-12-03T06:53:12.977Z,2.20
2017-12-03T06:55:39.218Z,2.20
2017-12-03T06:58:05.817Z,2.10
2017-12-03T07:00:32.057Z,2.00
2017-12-03T07:02:59.022Z,2.20
2017-12-03T07:05:25.376Z,2.50
2017-12-03T07:07:51.591Z,2.10
2017-12-03T07:10:18.569Z,2.10
2017-12-03T07:12:44.798Z,2.10
2017-12-03T07:15:11.770Z,2.00
2017-12-03T07:17:38.018Z,1.90
2017-12-03T07:20:04.241Z,2.00
2017-12-03T07:22:32.193Z,2.00
2017-12-03T07:24:59.181Z,2.00
2017-12-03T07:27:25.632Z,1.90
2017-12-03T07:29:51.878Z,2.10
2017-12-03T07:32:18.118Z,2.10
2017-12-03T07:34:45.102Z,2.00
2017-12-03T07:37:11.329Z,2.00
2017-12-03T07:39:37.581Z,2.00
2017-12-03T07:42:03.825Z,2.00
2017-12-03T07:44:30.115Z,2.00
2017-12-03T07:46:56.350Z,2.20
2017-12-03T07:49:23.357Z,2.20
2017-12-03T07:51:49.633Z,2.20
2017-12-03T07:54:15.993Z,2.60
2017-12-03T07:56:42.991Z,2.30
2017-12-03T07:59:09.255Z,2.30
2017-12-03T08:01:35.546Z,2.40
2017-12-03T08:04:02.578Z,2.20
2017-12-03T08:06:28.824Z,2.20
2017-12-03T08:08:56.010Z,2.20
2017-12-03T08:11:22.997Z,2.20
2017-12-03T08:13:49.239Z,2.20
2017-12-03T08:16:15.686Z,2.30
2017-12-03T08:18:41.978Z,2.40
2017-12-03T08:21:08.210Z,2.40
2017-12-03T08:23:34.461Z,2.30
2017-12-03T08:26:01.028Z,2.20
2017-12-03T08:28:28.116Z,2.20
2017-12-03T08:30:54.344Z,2.10
2017-12-03T08:33:20.549Z,2.20
2017-12-03T08:35:47.562Z,2.10
2017-12-03T08:38:13.790Z,2.20
2017-12-03T08:40:40.112Z,2.10
2017-12-03T08:43:06.290Z,2.10
2017-12-03T08:45:32.523Z,2.10
2017-12-03T08:47:58.801Z,2.10
2017-12-03T08:50:25.044Z,2.00
2017-12-03T08:52:51.344Z,2.10
2017-12-03T08:55:17.644Z,2.20
2017-12-03T08:57:43.854Z,2.40
2017-12-03T09:00:10.106Z,2.20
2017-12-03T09:02:37.077Z,2.30
2017-12-03T09:05:03.438Z,2.30
2017-12-03T09:07:29.669Z,2.30
2017-12-03T09:09:55.903Z,2.30
2017-12-03T09:12:22.137Z,2.40
2017-12-03T09:14:48.375Z,2.40
2017-12-03T09:17:14.613Z,2.40
2017-12-03T09:19:40.861Z,2.40
2017-12-03T09:22:07.109Z,2.30
2017-12-03T09:24:33.358Z,2.30
2017-12-03T09:27:00.427Z,2.30
2017-12-03T09:29:26.758Z,2.30
2017-12-03T09:31:53.012Z,2.30
2017-12-03T09:34:19.473Z,2.40
2017-12-03T09:36:48.039Z,2.30
2017-12-03T09:39:14.614Z,2.40
2017-12-03T09:41:40.900Z,2.40
2017-12-03T09:44:07.751Z,2.30
2017-12-03T09:46:34.005Z,2.30
2017-12-03T09:49:00.257Z,2.20
2017-12-03T09:51:26.538Z,2.30
2017-12-03T09:53:52.813Z,2.30
2017-12-03T09:56:22.595Z,2.40
2017-12-03T09:58:48.872Z,2.40
2017-12-03T10:01:15.165Z,2.30
2017-12-03T10:03:41.417Z,2.40
2017-12-03T10:06:07.705Z,2.40
2017-12-03T10:08:34.689Z,2.50
2017-12-03T10:11:00.990Z,2.50
2017-12-03T10:13:27.949Z,2.50
2017-12-03T10:15:54.234Z,2.60
2017-12-03T10:18:20.465Z,2.60
2017-12-03T10:20:46.703Z,2.20
2017-12-03T10:23:12.902Z,2.60
2017-12-03T10:25:39.202Z,2.80
2017-12-03T10:28:05.597Z,2.60
2017-12-03T10:30:31.913Z,2.60
2017-12-03T10:32:58.154Z,2.70
2017-12-03T10:35:24.406Z,2.70
2017-12-03T10:38:02.997Z,2.80
2017-12-03T10:40:29.389Z,2.70
2017-12-03T10:42:55.606Z,2.80
2017-12-03T10:45:21.862Z,2.90
2017-12-03T10:47:48.089Z,2.80
2017-12-03T10:50:15.068Z,2.50
2017-12-03T10:52:41.446Z,2.50
2017-12-03T10:55:08.422Z,2.50
2017-12-03T10:57:34.689Z,2.50
2017-12-03T11:00:00.959Z,2.70
2017-12-03T11:02:28.004Z,2.70
2017-12-03T11:04:54.277Z,2.60
2017-12-03T11:07:20.764Z,2.60
2017-12-03T11:09:47.145Z,2.60
2017-12-03T11:12:13.374Z,2.60
2017-12-03T11:14:39.618Z,2.70
2017-12-03T11:17:05.952Z,2.70
2017-12-03T11:19:32.189Z,2.70
2017-12-03T11:21:58.461Z,2.80
2017-12-03T11:24:25.551Z,2.30
2017-12-03T11:26:51.884Z,2.80
2017-12-03T11:29:18.978Z,2.60
2017-12-03T11:31:45.229Z,2.70
2017-12-03T11:34:11.575Z,2.80
2017-12-03T11:36:37.879Z,2.80
2017-12-03T11:39:04.244Z,3.00
2017-12-03T11:41:30.563Z,2.80
2017-12-03T11:43:57.574Z,2.90
2017-12-03T11:46:23.873Z,2.70
2017-12-03T11:48:50.857Z,2.80
2017-12-03T11:51:17.162Z,2.80
2017-12-03T11:53:44.165Z,2.80
2017-12-03T11:56:10.415Z,2.40
2017-12-03T11:58:36.679Z,2.80
2017-12-03T12:01:03.061Z,2.80
2017-12-03T12:03:29.343Z,2.80
2017-12-03T12:05:55.597Z,2.90
2017-12-03T12:08:21.852Z,2.90
2017-12-03T12:10:48.105Z,2.90
2017-12-03T12:13:14.357Z,3.10
2017-12-03T12:15:40.631Z,2.90
2017-12-03T12:18:06.990Z,3.00
2017-12-03T12:20:33.277Z,2.90
2017-12-03T12:22:59.520Z,3.00
2017-12-03T12:25:26.514Z,3.00
2017-12-03T12:27:52.850Z,3.00
2017-12-03T12:30:19.146Z,3.00
2017-12-03T12:32:46.247Z,3.00
2017-12-03T12:35:13.333Z,2.90
2017-12-03T12:37:39.624Z,2.80
2017-12-03T12:40:06.652Z,2.90
2017-12-03T12:42:32.902Z,2.80
2017-12-03T12:44:59.169Z,2.90
2017-12-03T12:47:25.453Z,2.90
2017-12-03T12:49:51.821Z,2.90
2017-12-03T12:52:18.120Z,2.90
2017-12-03T12:54:44.379Z,3.00
2017-12-03T12:57:10.677Z,3.10
2017-12-03T12:59:37.017Z,3.10
2017-12-03T13:02:04.037Z,3.00
2017-12-03T13:04:30.288Z,3.00
2017-12-03T13:06:56.536Z,3.00
2017-12-03T13:09:22.930Z,3.00
2017-12-03T13:11:49.177Z,3.00
2017-12-03T13:14:15.439Z,2.90
2017-12-03T13:16:41.674Z,3.00
2017-12-03T13:19:07.987Z,3.30
2017-12-03T13:21:34.329Z,3.10
2017-12-03T13:24:01.373Z,3.10
2017-12-03T13:26:27.661Z,3.10
2017-12-03T13:28:53.926Z,3.20
2017-12-03T13:31:25.698Z,3.00
2017-12-03T13:33:51.905Z,3.10
2017-12-03T13:36:18.324Z,3.10
2017-12-03T13:38:45.333Z,3.20
2017-12-03T13:41:12.056Z,3.20
2017-12-03T13:43:38.488Z,3.20
2017-12-03T13:46:04.790Z,3.10
2017-12-03T13:48:31.803Z,3.00
2017-12-03T13:50:58.146Z,3.00
2017-12-03T13:53:24.413Z,3.00
2017-12-03T13:55:50.703Z,3.00
2017-12-03T13:58:17.037Z,3.40
2017-12-03T14:00:43.323Z,3.20
2017-12-03T14:03:09.677Z,3.10
2017-12-03T14:05:35.965Z,3.10
2017-12-03T14:08:02.302Z,3.20
2017-12-03T14:10:28.582Z,3.10
2017-12-03T14:12:54.856Z,3.10
2017-12-03T14:15:21.194Z,3.10
2017-12-03T14:17:48.529Z,3.10
2017-12-03T14:20:14.777Z,3.10
2017-12-03T14:22:41.758Z,3.20
2017-12-03T14:25:08.095Z,3.20
2017-12-03T14:27:34.345Z,3.10
2017-12-03T14:30:00.585Z,3.20
2017-12-03T14:32:26.976Z,3.10
2017-12-03T14:34:53.814Z,3.10
2017-12-03T14:37:20.066Z,3.00
2017-12-03T14:39:46.305Z,3.00
2017-12-03T14:42:12.590Z,3.10
2017-12-03T14:44:38.944Z,3.10
2017-12-03T14:47:05.229Z,3.10
2017-12-03T14:49:31.486Z,3.20
2017-12-03T14:51:57.778Z,3.20
2017-12-03T14:54:25.131Z,3.10
2017-12-03T14:56:51.470Z,3.10
2017-12-03T14:59:17.810Z,3.40
2017-12-03T15:01:44.150Z,3.20
2017-12-03T15:04:10.545Z,3.30
2017-12-03T15:06:36.838Z,3.20
2017-12-03T15:09:03.198Z,3.20
2017-12-03T15:11:30.029Z,3.20
2017-12-03T15:13:56.306Z,3.20
2017-12-03T15:16:23.305Z,3.20
2017-12-03T15:18:50.310Z,3.20
2017-12-03T15:21:16.356Z,3.20
2017-12-03T15:23:42.596Z,3.30
2017-12-03T15:26:08.829Z,3.10
2017-12-03T15:28:35.105Z,3.00
2017-12-03T15:31:01.385Z,3.00
2017-12-03T15:33:27.661Z,3.10
2017-12-03T15:35:53.894Z,3.10
2017-12-03T15:38:20.119Z,3.10
2017-12-03T15:40:46.386Z,2.70
2017-12-03T15:43:12.648Z,3.10
2017-12-03T15:45:39.096Z,3.10
2017-12-03T15:48:05.343Z,3.10
2017-12-03T15:50:32.391Z,3.20
2017-12-03T15:52:58.631Z,3.20
2017-12-03T15:55:24.953Z,3.10
2017-12-03T15:57:51.201Z,3.10
2017-12-03T16:00:17.436Z,3.20
2017-12-03T16:02:43.693Z,3.30
2017-12-03T16:05:09.908Z,3.30
2017-12-03T16:07:36.168Z,3.20
2017-12-03T16:10:02.553Z,3.40
2017-12-03T16:12:29.577Z,3.20
2017-12-03T16:14:55.945Z,3.40
2017-12-03T16:17:22.196Z,3.20
2017-12-03T16:19:48.419Z,3.50
2017-12-03T16:22:14.663Z,3.20
2017-12-03T16:24:40.869Z,3.30
2017-12-03T16:27:07.151Z,3.30
2017-12-03T16:29:33.445Z,3.30
2017-12-03T16:31:59.665Z,3.30
2017-12-03T16:34:26.069Z,3.20
2017-12-03T16:36:52.299Z,3.20
2017-12-03T16:39:18.537Z,3.50
2017-12-03T16:41:44.741Z,3.10
2017-12-03T16:44:11.034Z,3.50
2017-12-03T16:46:37.329Z,3.20
2017-12-03T16:49:03.593Z,3.40
2017-12-03T16:51:29.846Z,3.30
2017-12-03T16:53:56.086Z,3.30
2017-12-03T16:56:22.366Z,3.40
2017-12-03T16:58:49.365Z,3.40
2017-12-03T17:01:15.635Z,3.40
2017-12-03T17:03:41.921Z,3.40
2017-12-03T17:06:08.181Z,3.50
2017-12-03T17:08:34.464Z,3.40
2017-12-03T17:11:01.461Z,3.50
2017-12-03T17:13:27.782Z,3.80
2017-12-03T17:15:54.794Z,3.40
2017-12-03T17:18:21.061Z,3.40
2017-12-03T17:20:47.306Z,3.40
2017-12-03T17:23:14.359Z,3.40
2017-12-03T17:25:40.645Z,3.30
2017-12-03T17:28:06.917Z,3.40
2017-12-03T17:30:39.031Z,3.50
2017-12-03T17:33:05.328Z,3.50
2017-12-03T17:35:31.661Z,3.80
2017-12-03T17:37:58.731Z,3.60
2017-12-03T17:40:25.065Z,3.60
2017-12-03T17:42:52.085Z,3.50
2017-12-03T17:45:25.170Z,3.50
2017-12-03T17:47:51.238Z,3.50
2017-12-03T17:50:17.551Z,3.30
2017-12-03T17:52:43.799Z,3.40
2017-12-03T17:55:10.054Z,3.40
2017-12-03T17:57:36.341Z,3.50
2017-12-03T18:00:02.587Z,3.50
2017-12-03T18:02:35.285Z,3.40
2017-12-03T18:05:01.336Z,3.30
2017-12-03T18:07:28.372Z,3.60
2017-12-03T18:09:54.604Z,3.70
2017-12-03T18:12:20.906Z,4.10
2017-12-03T18:14:47.129Z,3.90
2017-12-03T18:17:14.233Z,3.90
2017-12-03T18:19:44.232Z,3.80
2017-12-03T18:22:10.614Z,3.80
2017-12-03T18:24:37.604Z,3.80
2017-12-03T18:27:03.874Z,3.80
2017-12-03T18:29:30.150Z,3.90
2017-12-03T18:31:57.150Z,4.00
2017-12-03T18:34:24.128Z,4.00
2017-12-03T18:36:52.744Z,3.70
2017-12-03T18:39:19.104Z,3.80
2017-12-03T18:41:45.583Z,3.90
2017-12-03T18:44:12.633Z,4.00
2017-12-03T18:46:38.909Z,4.00
2017-12-03T18:49:05.166Z,4.10
2017-12-03T18:51:31.486Z,4.00
2017-12-03T18:54:02.743Z,4.00
2017-12-03T18:56:29.005Z,4.10
2017-12-03T18:58:55.264Z,3.90
2017-12-03T19:01:22.290Z,3.90
2017-12-03T19:03:48.565Z,3.90
2017-12-03T19:06:15.566Z,3.70
2017-12-03T19:08:41.870Z,3.70
2017-12-03T19:11:14.847Z,3.80
2017-12-03T19:13:41.093Z,3.80
2017-12-03T19:16:07.357Z,3.90
2017-12-03T19:18:34.370Z,4.10
2017-12-03T19:21:00.673Z,4.10
2017-12-03T19:23:26.969Z,4.50
2017-12-03T19:25:59.129Z,4.00
2017-12-03T19:28:26.172Z,4.00
2017-12-03T19:30:53.253Z,4.10
2017-12-03T19:33:19.569Z,4.00
2017-12-03T19:35:45.885Z,3.70
2017-12-03T19:38:12.158Z,4.20
2017-12-03T19:40:38.697Z,4.20
2017-12-03T19:43:09.955Z,4.10
2017-12-03T19:45:36.188Z,4.10
2017-12-03T19:48:02.434Z,4.00
2017-12-03T19:50:28.736Z,3.90
2017-12-03T19:52:54.990Z,4.20
2017-12-03T19:55:21.145Z,4.10
2017-12-03T19:57:47.424Z,4.00
2017-12-03T20:00:17.013Z,4.00
2017-12-03T20:02:44.010Z,4.10
2017-12-03T20:05:10.992Z,4.10
2017-12-03T20:07:37.258Z,4.20
2017-12-03T20:10:04.233Z,4.30
2017-12-03T20:12:30.453Z,4.30
2017-12-03T20:14:56.689Z,4.20
2017-12-03T20:17:26.380Z,4.60
2017-12-03T20:19:52.609Z,4.30
2017-12-03T20:22:19.612Z,4.40
2017-12-03T20:24:45.860Z,4.40
2017-12-03T20:27:12.864Z,4.30
2017-12-03T20:29:39.147Z,4.30
2017-12-03T20:32:11.988Z,4.50
2017-12-03T20:34:38.226Z,4.30
2017-12-03T20:37:04.471Z,4.20
2017-12-03T20:39:30.738Z,4.30
2017-12-03T20:41:57.007Z,4.30
2017-12-03T20:44:23.294Z,4.30
2017-12-03T20:46:54.418Z,4.30
2017-12-03T20:49:20.922Z,4.50
2017-12-03T20:51:47.178Z,4.40
2017-12-03T20:54:13.424Z,4.40
2017-12-03T20:56:39.741Z,4.40
2017-12-03T20:59:05.981Z,3.90
2017-12-03T21:01:32.298Z,4.40
2017-12-03T21:03:58.627Z,4.70
2017-12-03T21:06:25.649Z,4.60
2017-12-03T21:08:51.952Z,4.60
2017-12-03T21:11:18.928Z,4.50
2017-12-03T21:13:45.211Z,4.90
2017-12-03T21:16:11.461Z,4.60
2017-12-03T21:18:37.807Z,4.50
2017-12-03T21:21:04.086Z,4.70
2017-12-03T21:23:31.068Z,4.30
2017-12-03T21:25:57.361Z,4.30
2017-12-03T21:28:23.621Z,4.30
2017-12-03T21:30:50.599Z,4.30
2017-12-03T21:33:16.913Z,4.30
2017-12-03T21:35:43.178Z,4.40
2017-12-03T21:38:10.229Z,4.40
2017-12-03T21:40:36.534Z,4.40
2017-12-03T21:43:03.287Z,4.40
2017-12-03T21:48:02.625Z,4.50
2017-12-03T21:50:29.426Z,4.50
2017-12-03T21:52:56.255Z,4.40
2017-12-03T21:55:22.290Z,4.40
2017-12-03T21:57:48.325Z,4.40
2017-12-03T22:00:14.579Z,4.50
2017-12-03T22:02:41.585Z,4.60
2017-12-03T22:05:07.974Z,4.60
2017-12-03T22:07:34.976Z,4.70
2017-12-03T22:10:01.299Z,4.70
2017-12-03T22:12:28.184Z,4.80
2017-12-03T22:14:54.482Z,4.80
2017-12-03T22:17:20.785Z,4.70
2017-12-03T22:19:47.033Z,5.00
2017-12-03T22:22:13.317Z,4.80
2017-12-03T22:24:40.322Z,4.50
2017-12-03T22:27:06.622Z,4.50
2017-12-03T22:29:33.602Z,4.60
2017-12-03T22:31:59.937Z,4.60
2017-12-03T22:34:26.187Z,4.70
2017-12-03T22:36:52.482Z,4.70
2017-12-03T22:39:18.742Z,4.80
2017-12-03T22:41:45.745Z,4.70
2017-12-03T22:44:11.984Z,4.70
2017-12-03T22:46:38.256Z,4.70
2017-12-03T22:49:07.557Z,4.60
2017-12-03T22:51:33.785Z,4.70
2017-12-03T22:54:00.024Z,4.60
2017-12-03T22:56:26.265Z,4.60
2017-12-03T22:58:52.540Z,4.60
2017-12-03T23:01:18.786Z,4.50
2017-12-03T23:03:45.185Z,4.60
2017-12-03T23:06:11.451Z,4.70
2017-12-03T23:08:37.792Z,4.60
2017-12-03T23:11:04.038Z,4.70
2017-12-03T23:13:30.309Z,4.80
2017-12-03T23:15:57.290Z,4.80
2017-12-03T23:18:24.285Z,4.90
2017-12-03T23:20:50.571Z,4.90
2017-12-03T23:23:16.850Z,4.90
2017-12-03T23:25:43.119Z,4.40
2017-12-03T23:28:09.452Z,4.90
2017-12-03T23:30:35.734Z,4.90
2017-12-03T23:33:02.015Z,4.90
2017-12-03T23:35:28.273Z,4.90
2017-12-03T23:37:54.646Z,4.90
2017-12-03T23:40:20.936Z,4.90
2017-12-03T23:42:47.233Z,4.90
2017-12-03T23:45:13.562Z,4.90
2017-12-03T23:47:39.959Z,4.90
2017-12-03T23:50:06.292Z,4.90
2017-12-03T23:52:32.641Z,4.90
2017-12-03T23:54:59.605Z,5.00
2017-12-03T23:57:27.001Z,5.00
2017-12-03T23:59:53.248Z,4.90
